sensor_id;sensor_type;location;lat;lon;timestamp;P1;durP1;ratioP1;P2;durP2;ratioP2
19691;SDS011;42748;50.016;19.890;2022-10-31T08:26:12;29.48;;;15.85;;
19691;SDS011;42748;50.016;19.890;2022-10-31T08:28:48;31.60;;;16.50;;
19691;SDS011;42748;50.016;19.890;2022-10-31T08:31:18;31.13;;;15.45;;
19691;SDS011;42748;50.016;19.890;2022-10-31T08:34:05;30.75;;;15.73;;
19691;SDS011;42748;50.016;19.890;2022-10-31T08:36:51;27.80;;;15.48;;
19691;SDS011;42748;50.016;19.890;2022-10-31T08:39:27;32.50;;;15.38;;
19691;SDS011;42748;50.016;19.890;2022-10-31T08:41:58;28.27;;;15.07;;
19691;SDS011;42748;50.016;19.890;2022-10-31T08:44:24;31.13;;;17.55;;
19691;SDS011;42748;50.016;19.890;2022-10-31T08:46:51;28.20;;;17.95;;
19691;SDS011;42748;50.016;19.890;2022-10-31T08:49:21;35.22;;;18.10;;
19691;SDS011;42748;50.016;19.890;2022-10-31T08:51:48;40.28;;;18.52;;
19691;SDS011;42748;50.016;19.890;2022-10-31T08:54:15;31.38;;;19.08;;
19691;SDS011;42748;50.016;19.890;2022-10-31T08:57:02;35.22;;;18.58;;
19691;SDS011;42748;50.016;19.890;2022-10-31T08:59:40;35.10;;;18.67;;
19691;SDS011;42748;50.016;19.890;2022-10-31T09:02:30;35.42;;;18.58;;
19691;SDS011;42748;50.016;19.890;2022-10-31T09:04:59;33.63;;;18.13;;
19691;SDS011;42748;50.016;19.890;2022-10-31T09:07:26;29.80;;;17.85;;
19691;SDS011;42748;50.016;19.890;2022-10-31T09:09:53;32.75;;;17.13;;
19691;SDS011;42748;50.016;19.890;2022-10-31T09:12:22;30.55;;;15.20;;
19691;SDS011;42748;50.016;19.890;2022-10-31T09:15:10;29.05;;;14.05;;
19691;SDS011;42748;50.016;19.890;2022-10-31T09:18:00;29.98;;;14.15;;
19691;SDS011;42748;50.016;19.890;2022-10-31T09:20:42;25.20;;;12.65;;
19691;SDS011;42748;50.016;19.890;2022-10-31T09:23:11;23.30;;;12.52;;
19691;SDS011;42748;50.016;19.890;2022-10-31T09:25:40;22.83;;;11.68;;
19691;SDS011;42748;50.016;19.890;2022-10-31T09:28:36;22.50;;;11.88;;
19691;SDS011;42748;50.016;19.890;2022-10-31T09:31:12;24.67;;;10.93;;
19691;SDS011;42748;50.016;19.890;2022-10-31T09:33:48;19.08;;;10.43;;
19691;SDS011;42748;50.016;19.890;2022-10-31T09:36:34;22.67;;;10.43;;
19691;SDS011;42748;50.016;19.890;2022-10-31T09:39:03;22.83;;;10.23;;
19691;SDS011;42748;50.016;19.890;2022-10-31T09:41:40;22.30;;;10.18;;
19691;SDS011;42748;50.016;19.890;2022-10-31T09:50:21;21.42;;;10.23;;
19691;SDS011;42748;50.016;19.890;2022-10-31T09:53:03;25.65;;;10.98;;
19691;SDS011;42748;50.016;19.890;2022-10-31T09:55:37;22.85;;;9.80;;
19691;SDS011;42748;50.016;19.890;2022-10-31T09:58:09;22.08;;;9.88;;
19691;SDS011;42748;50.016;19.890;2022-10-31T10:00:43;20.90;;;10.02;;
19691;SDS011;42748;50.016;19.890;2022-10-31T10:03:21;18.73;;;9.55;;
19691;SDS011;42748;50.016;19.890;2022-10-31T10:06:22;18.45;;;9.85;;
19691;SDS011;42748;50.016;19.890;2022-10-31T10:09:29;21.58;;;10.20;;
19691;SDS011;42748;50.016;19.890;2022-10-31T10:12:32;23.48;;;9.68;;
19691;SDS011;42748;50.016;19.890;2022-10-31T10:18:02;17.83;;;8.90;;
19691;SDS011;42748;50.016;19.890;2022-10-31T10:23:44;21.75;;;9.73;;
19691;SDS011;42748;50.016;19.890;2022-10-31T10:26:22;19.80;;;8.80;;
19691;SDS011;42748;50.016;19.890;2022-10-31T10:28:58;22.58;;;10.43;;
19691;SDS011;42748;50.016;19.890;2022-10-31T10:31:34;22.25;;;9.95;;
19691;SDS011;42748;50.016;19.890;2022-10-31T10:36:55;24.38;;;9.60;;
19691;SDS011;42748;50.016;19.890;2022-10-31T10:39:35;24.50;;;9.20;;
19691;SDS011;42748;50.016;19.890;2022-10-31T10:42:14;21.10;;;8.98;;
19691;SDS011;42748;50.016;19.890;2022-10-31T10:45:06;23.15;;;8.77;;
19691;SDS011;42748;50.016;19.890;2022-10-31T10:48:05;19.23;;;8.65;;
19691;SDS011;42748;50.016;19.890;2022-10-31T10:50:47;22.80;;;8.90;;
19691;SDS011;42748;50.016;19.890;2022-10-31T10:58:43;20.92;;;8.45;;
19691;SDS011;42748;50.016;19.890;2022-10-31T11:01:12;26.38;;;9.05;;
19691;SDS011;42748;50.016;19.890;2022-10-31T11:03:45;20.25;;;8.57;;
19691;SDS011;42748;50.016;19.890;2022-10-31T11:06:22;19.13;;;8.45;;
19691;SDS011;42748;50.016;19.890;2022-10-31T11:08:52;18.25;;;8.15;;
19691;SDS011;42748;50.016;19.890;2022-10-31T11:13:59;19.25;;;7.55;;
19691;SDS011;42748;50.016;19.890;2022-10-31T11:16:33;28.70;;;7.72;;
19691;SDS011;42748;50.016;19.890;2022-10-31T11:19:17;24.05;;;7.80;;
19691;SDS011;42748;50.016;19.890;2022-10-31T11:21:47;27.15;;;8.70;;
19691;SDS011;42748;50.016;19.890;2022-10-31T11:24:22;23.67;;;8.60;;
19691;SDS011;42748;50.016;19.890;2022-10-31T11:27:02;20.20;;;8.68;;
19691;SDS011;42748;50.016;19.890;2022-10-31T11:29:43;21.23;;;7.93;;
19691;SDS011;42748;50.016;19.890;2022-10-31T11:32:21;21.15;;;8.32;;
19691;SDS011;42748;50.016;19.890;2022-10-31T11:34:51;28.90;;;9.00;;
19691;SDS011;42748;50.016;19.890;2022-10-31T11:37:39;20.85;;;8.02;;
19691;SDS011;42748;50.016;19.890;2022-10-31T11:40:19;22.38;;;8.63;;
19691;SDS011;42748;50.016;19.890;2022-10-31T11:42:48;22.83;;;8.70;;
19691;SDS011;42748;50.016;19.890;2022-10-31T11:47:51;22.10;;;8.50;;
19691;SDS011;42748;50.016;19.890;2022-10-31T11:53:17;22.98;;;8.50;;
19691;SDS011;42748;50.016;19.890;2022-10-31T11:55:46;19.88;;;7.85;;
19691;SDS011;42748;50.016;19.890;2022-10-31T11:58:26;17.80;;;7.95;;
19691;SDS011;42748;50.016;19.890;2022-10-31T12:00:54;21.67;;;8.52;;
19691;SDS011;42748;50.016;19.890;2022-10-31T12:05:52;22.33;;;8.52;;
19691;SDS011;42748;50.016;19.890;2022-10-31T12:08:31;17.98;;;8.63;;
19691;SDS011;42748;50.016;19.890;2022-10-31T12:13:56;24.13;;;8.52;;
19691;SDS011;42748;50.016;19.890;2022-10-31T12:42:08;21.98;;;8.30;;
19691;SDS011;42748;50.016;19.890;2022-10-31T12:45:06;18.10;;;8.25;;
19691;SDS011;42748;50.016;19.890;2022-10-31T12:47:53;27.27;;;9.20;;
19691;SDS011;42748;50.016;19.890;2022-10-31T12:50:41;18.02;;;8.25;;
19691;SDS011;42748;50.016;19.890;2022-10-31T12:54:00;18.08;;;8.25;;
19691;SDS011;42748;50.016;19.890;2022-10-31T12:56:38;22.00;;;8.77;;
19691;SDS011;42748;50.016;19.890;2022-10-31T12:59:14;25.98;;;9.15;;
19691;SDS011;42748;50.016;19.890;2022-10-31T13:07:19;28.10;;;10.30;;
19691;SDS011;42748;50.016;19.890;2022-10-31T13:12:41;28.88;;;10.23;;
19691;SDS011;42748;50.016;19.890;2022-10-31T13:15:21;20.92;;;9.07;;
19691;SDS011;42748;50.016;19.890;2022-10-31T13:17:52;25.30;;;8.75;;
19691;SDS011;42748;50.016;19.890;2022-10-31T13:23:05;24.25;;;9.88;;
19691;SDS011;42748;50.016;19.890;2022-10-31T13:26:06;24.52;;;9.77;;
19691;SDS011;42748;50.016;19.890;2022-10-31T13:28:47;23.33;;;9.07;;
19691;SDS011;42748;50.016;19.890;2022-10-31T13:31:20;26.17;;;9.82;;
19691;SDS011;42748;50.016;19.890;2022-10-31T13:34:01;19.60;;;8.90;;
19691;SDS011;42748;50.016;19.890;2022-10-31T13:36:39;24.63;;;9.00;;
19691;SDS011;42748;50.016;19.890;2022-10-31T13:39:19;21.35;;;8.93;;
19691;SDS011;42748;50.016;19.890;2022-10-31T13:41:49;31.77;;;9.50;;
19691;SDS011;42748;50.016;19.890;2022-10-31T13:44:21;21.42;;;8.52;;
19691;SDS011;42748;50.016;19.890;2022-10-31T13:46:50;18.52;;;8.43;;
19691;SDS011;42748;50.016;19.890;2022-10-31T13:57:06;33.05;;;10.32;;
19691;SDS011;42748;50.016;19.890;2022-10-31T14:00:00;34.28;;;9.93;;
19691;SDS011;42748;50.016;19.890;2022-10-31T14:02:47;30.70;;;9.77;;
19691;SDS011;42748;50.016;19.890;2022-10-31T14:07:43;30.33;;;10.18;;
19691;SDS011;42748;50.016;19.890;2022-10-31T14:10:21;26.92;;;9.43;;
19691;SDS011;42748;50.016;19.890;2022-10-31T14:12:52;30.05;;;9.65;;
19691;SDS011;42748;50.016;19.890;2022-10-31T14:15:40;23.73;;;9.38;;
19691;SDS011;42748;50.016;19.890;2022-10-31T14:18:23;21.60;;;9.57;;
19691;SDS011;42748;50.016;19.890;2022-10-31T14:20:55;23.52;;;9.32;;
19691;SDS011;42748;50.016;19.890;2022-10-31T14:28:55;27.23;;;9.20;;
19691;SDS011;42748;50.016;19.890;2022-10-31T14:34:04;29.38;;;9.27;;
19691;SDS011;42748;50.016;19.890;2022-10-31T14:37:18;24.48;;;9.23;;
19691;SDS011;42748;50.016;19.890;2022-10-31T14:50:45;36.40;;;15.32;;
19691;SDS011;42748;50.016;19.890;2022-10-31T14:53:17;37.97;;;14.93;;
19691;SDS011;42748;50.016;19.890;2022-10-31T14:55:48;48.08;;;16.67;;
19691;SDS011;42748;50.016;19.890;2022-10-31T14:58:23;55.88;;;16.67;;
19691;SDS011;42748;50.016;19.890;2022-10-31T15:01:25;66.13;;;17.00;;
19691;SDS011;42748;50.016;19.890;2022-10-31T15:03:57;71.88;;;16.42;;
19691;SDS011;42748;50.016;19.890;2022-10-31T15:12:31;58.38;;;12.85;;
19691;SDS011;42748;50.016;19.890;2022-10-31T15:15:13;60.58;;;12.45;;
19691;SDS011;42748;50.016;19.890;2022-10-31T15:17:45;45.28;;;11.68;;
19691;SDS011;42748;50.016;19.890;2022-10-31T15:20:28;27.08;;;10.02;;
19691;SDS011;42748;50.016;19.890;2022-10-31T15:22:57;22.83;;;9.85;;
19691;SDS011;42748;50.016;19.890;2022-10-31T15:25:27;26.10;;;9.52;;
19691;SDS011;42748;50.016;19.890;2022-10-31T15:27:58;31.08;;;10.23;;
19691;SDS011;42748;50.016;19.890;2022-10-31T15:30:27;26.73;;;10.10;;
19691;SDS011;42748;50.016;19.890;2022-10-31T15:32:55;23.02;;;9.23;;
19691;SDS011;42748;50.016;19.890;2022-10-31T15:35:30;26.88;;;10.05;;
19691;SDS011;42748;50.016;19.890;2022-10-31T15:37:58;24.45;;;10.10;;
19691;SDS011;42748;50.016;19.890;2022-10-31T15:40:27;25.25;;;9.95;;
19691;SDS011;42748;50.016;19.890;2022-10-31T15:45:27;31.75;;;10.27;;
19691;SDS011;42748;50.016;19.890;2022-10-31T15:47:59;28.08;;;10.68;;
19691;SDS011;42748;50.016;19.890;2022-10-31T15:50:36;27.42;;;10.85;;
19691;SDS011;42748;50.016;19.890;2022-10-31T15:53:14;28.52;;;11.02;;
19691;SDS011;42748;50.016;19.890;2022-10-31T15:55:51;32.92;;;10.90;;
19691;SDS011;42748;50.016;19.890;2022-10-31T15:58:21;35.58;;;11.02;;
19691;SDS011;42748;50.016;19.890;2022-10-31T16:01:03;30.90;;;11.48;;
19691;SDS011;42748;50.016;19.890;2022-10-31T16:03:56;27.92;;;11.52;;
19691;SDS011;42748;50.016;19.890;2022-10-31T16:06:27;35.67;;;10.73;;
19691;SDS011;42748;50.016;19.890;2022-10-31T16:08:54;30.13;;;10.93;;
19691;SDS011;42748;50.016;19.890;2022-10-31T16:16:28;29.55;;;11.70;;
19691;SDS011;42748;50.016;19.890;2022-10-31T16:19:02;26.40;;;11.40;;
19691;SDS011;42748;50.016;19.890;2022-10-31T16:21:32;26.60;;;10.77;;
19691;SDS011;42748;50.016;19.890;2022-10-31T16:24:10;33.03;;;11.93;;
19691;SDS011;42748;50.016;19.890;2022-10-31T16:26:48;29.48;;;11.68;;
19691;SDS011;42748;50.016;19.890;2022-10-31T16:35:17;34.40;;;11.82;;
19691;SDS011;42748;50.016;19.890;2022-10-31T16:37:51;32.53;;;11.85;;
19691;SDS011;42748;50.016;19.890;2022-10-31T16:40:19;30.85;;;12.57;;
19691;SDS011;42748;50.016;19.890;2022-10-31T16:42:47;28.55;;;12.45;;
19691;SDS011;42748;50.016;19.890;2022-10-31T16:45:22;31.85;;;11.73;;
19691;SDS011;42748;50.016;19.890;2022-10-31T16:47:50;26.85;;;12.65;;
19691;SDS011;42748;50.016;19.890;2022-10-31T16:50:21;27.67;;;12.70;;
19691;SDS011;42748;50.016;19.890;2022-10-31T16:52:50;28.92;;;12.27;;
19691;SDS011;42748;50.016;19.890;2022-10-31T16:55:42;34.40;;;13.57;;
19691;SDS011;42748;50.016;19.890;2022-10-31T16:58:29;33.33;;;14.48;;
19691;SDS011;42748;50.016;19.890;2022-10-31T17:01:03;28.65;;;12.73;;
19691;SDS011;42748;50.016;19.890;2022-10-31T17:03:32;33.22;;;13.98;;
19691;SDS011;42748;50.016;19.890;2022-10-31T17:05:59;25.83;;;13.43;;
19691;SDS011;42748;50.016;19.890;2022-10-31T17:08:26;36.60;;;14.82;;
19691;SDS011;42748;50.016;19.890;2022-10-31T17:10:54;33.53;;;14.35;;
19691;SDS011;42748;50.016;19.890;2022-10-31T17:13:24;32.53;;;14.65;;
19691;SDS011;42748;50.016;19.890;2022-10-31T17:15:54;34.80;;;14.57;;
19691;SDS011;42748;50.016;19.890;2022-10-31T17:18:23;30.77;;;13.68;;
19691;SDS011;42748;50.016;19.890;2022-10-31T17:20:56;29.50;;;14.30;;
19691;SDS011;42748;50.016;19.890;2022-10-31T17:23:25;31.98;;;14.15;;
19691;SDS011;42748;50.016;19.890;2022-10-31T17:25:53;29.15;;;13.55;;
19691;SDS011;42748;50.016;19.890;2022-10-31T17:28:20;35.05;;;13.98;;
19691;SDS011;42748;50.016;19.890;2022-10-31T17:30:47;32.70;;;13.05;;
19691;SDS011;42748;50.016;19.890;2022-10-31T17:33:14;25.90;;;12.88;;
19691;SDS011;42748;50.016;19.890;2022-10-31T17:35:42;35.00;;;13.77;;
19691;SDS011;42748;50.016;19.890;2022-10-31T17:38:10;35.20;;;15.52;;
19691;SDS011;42748;50.016;19.890;2022-10-31T17:40:38;35.25;;;15.65;;
19691;SDS011;42748;50.016;19.890;2022-10-31T17:43:08;37.45;;;17.35;;
19691;SDS011;42748;50.016;19.890;2022-10-31T17:45:37;42.88;;;16.45;;
19691;SDS011;42748;50.016;19.890;2022-10-31T17:48:05;39.67;;;16.92;;
19691;SDS011;42748;50.016;19.890;2022-10-31T17:50:33;40.72;;;15.93;;
19691;SDS011;42748;50.016;19.890;2022-10-31T17:53:00;35.95;;;16.00;;
19691;SDS011;42748;50.016;19.890;2022-10-31T17:55:28;41.95;;;15.48;;
19691;SDS011;42748;50.016;19.890;2022-10-31T17:58:03;37.10;;;15.65;;
19691;SDS011;42748;50.016;19.890;2022-10-31T18:00:30;34.53;;;16.08;;
19691;SDS011;42748;50.016;19.890;2022-10-31T18:02:57;36.50;;;16.65;;
19691;SDS011;42748;50.016;19.890;2022-10-31T18:05:25;38.35;;;16.15;;
19691;SDS011;42748;50.016;19.890;2022-10-31T18:07:52;36.53;;;15.80;;
19691;SDS011;42748;50.016;19.890;2022-10-31T18:10:21;34.50;;;16.10;;
19691;SDS011;42748;50.016;19.890;2022-10-31T18:12:48;41.78;;;17.85;;
19691;SDS011;42748;50.016;19.890;2022-10-31T18:15:15;42.80;;;18.13;;
19691;SDS011;42748;50.016;19.890;2022-10-31T18:17:43;38.22;;;19.40;;
19691;SDS011;42748;50.016;19.890;2022-10-31T18:20:11;42.67;;;19.05;;
19691;SDS011;42748;50.016;19.890;2022-10-31T18:22:38;41.03;;;20.02;;
19691;SDS011;42748;50.016;19.890;2022-10-31T18:25:05;39.17;;;20.30;;
19691;SDS011;42748;50.016;19.890;2022-10-31T18:27:32;47.95;;;21.40;;
19691;SDS011;42748;50.016;19.890;2022-10-31T18:29:59;42.10;;;20.23;;
19691;SDS011;42748;50.016;19.890;2022-10-31T18:32:26;46.22;;;21.80;;
19691;SDS011;42748;50.016;19.890;2022-10-31T18:34:53;49.17;;;21.23;;
19691;SDS011;42748;50.016;19.890;2022-10-31T18:37:20;44.13;;;23.13;;
19691;SDS011;42748;50.016;19.890;2022-10-31T18:39:47;48.90;;;23.33;;
19691;SDS011;42748;50.016;19.890;2022-10-31T18:42:13;45.97;;;22.77;;
19691;SDS011;42748;50.016;19.890;2022-10-31T18:44:41;54.50;;;25.95;;
19691;SDS011;42748;50.016;19.890;2022-10-31T18:47:07;56.22;;;25.65;;
19691;SDS011;42748;50.016;19.890;2022-10-31T18:49:34;52.97;;;25.30;;
19691;SDS011;42748;50.016;19.890;2022-10-31T18:52:02;65.55;;;29.75;;
19691;SDS011;42748;50.016;19.890;2022-10-31T18:54:30;57.25;;;28.98;;
19691;SDS011;42748;50.016;19.890;2022-10-31T18:56:56;66.40;;;30.25;;
19691;SDS011;42748;50.016;19.890;2022-10-31T18:59:23;57.67;;;28.95;;
19691;SDS011;42748;50.016;19.890;2022-10-31T19:01:50;52.90;;;26.70;;
19691;SDS011;42748;50.016;19.890;2022-10-31T19:04:17;52.00;;;25.75;;
19691;SDS011;42748;50.016;19.890;2022-10-31T19:06:45;58.45;;;27.15;;
19691;SDS011;42748;50.016;19.890;2022-10-31T19:09:12;60.83;;;29.80;;
19691;SDS011;42748;50.016;19.890;2022-10-31T19:11:39;58.17;;;28.80;;
19691;SDS011;42748;50.016;19.890;2022-10-31T19:14:06;69.78;;;32.13;;
19691;SDS011;42748;50.016;19.890;2022-10-31T19:16:36;69.60;;;31.60;;
19691;SDS011;42748;50.016;19.890;2022-10-31T19:19:03;66.43;;;31.30;;
19691;SDS011;42748;50.016;19.890;2022-10-31T19:21:30;64.13;;;31.67;;
19691;SDS011;42748;50.016;19.890;2022-10-31T19:23:58;63.67;;;31.17;;
19691;SDS011;42748;50.016;19.890;2022-10-31T19:26:26;59.58;;;30.00;;
19691;SDS011;42748;50.016;19.890;2022-10-31T19:28:54;58.60;;;29.33;;
19691;SDS011;42748;50.016;19.890;2022-10-31T19:31:22;68.50;;;32.58;;
19691;SDS011;42748;50.016;19.890;2022-10-31T19:33:49;64.28;;;30.35;;
19691;SDS011;42748;50.016;19.890;2022-10-31T19:36:17;64.68;;;29.15;;
19691;SDS011;42748;50.016;19.890;2022-10-31T19:38:46;59.03;;;28.45;;
19691;SDS011;42748;50.016;19.890;2022-10-31T19:41:24;63.70;;;27.75;;
19691;SDS011;42748;50.016;19.890;2022-10-31T19:43:52;59.53;;;27.88;;
19691;SDS011;42748;50.016;19.890;2022-10-31T19:46:20;60.05;;;27.60;;
19691;SDS011;42748;50.016;19.890;2022-10-31T19:49:09;63.00;;;28.50;;
19691;SDS011;42748;50.016;19.890;2022-10-31T19:51:36;61.17;;;28.13;;
19691;SDS011;42748;50.016;19.890;2022-10-31T19:54:04;65.47;;;29.77;;
19691;SDS011;42748;50.016;19.890;2022-10-31T19:56:31;59.35;;;28.05;;
19691;SDS011;42748;50.016;19.890;2022-10-31T19:58:58;59.03;;;29.45;;
19691;SDS011;42748;50.016;19.890;2022-10-31T20:01:26;56.50;;;29.23;;
19691;SDS011;42748;50.016;19.890;2022-10-31T20:03:53;59.53;;;29.63;;
19691;SDS011;42748;50.016;19.890;2022-10-31T20:06:21;63.47;;;31.02;;
19691;SDS011;42748;50.016;19.890;2022-10-31T20:08:53;67.40;;;31.63;;
19691;SDS011;42748;50.016;19.890;2022-10-31T20:11:22;58.90;;;30.10;;
19691;SDS011;42748;50.016;19.890;2022-10-31T20:13:50;69.50;;;31.25;;
19691;SDS011;42748;50.016;19.890;2022-10-31T20:16:19;72.13;;;31.90;;
19691;SDS011;42748;50.016;19.890;2022-10-31T20:18:46;60.03;;;30.20;;
19691;SDS011;42748;50.016;19.890;2022-10-31T20:21:15;57.17;;;25.73;;
19691;SDS011;42748;50.016;19.890;2022-10-31T20:23:43;49.92;;;23.40;;
19691;SDS011;42748;50.016;19.890;2022-10-31T20:26:13;47.97;;;22.05;;
19691;SDS011;42748;50.016;19.890;2022-10-31T20:28:42;50.33;;;24.02;;
19691;SDS011;42748;50.016;19.890;2022-10-31T20:31:10;63.53;;;25.17;;
19691;SDS011;42748;50.016;19.890;2022-10-31T20:33:42;56.58;;;25.10;;
19691;SDS011;42748;50.016;19.890;2022-10-31T20:36:11;63.05;;;26.75;;
19691;SDS011;42748;50.016;19.890;2022-10-31T20:38:40;53.10;;;25.05;;
19691;SDS011;42748;50.016;19.890;2022-10-31T20:41:09;52.95;;;26.58;;
19691;SDS011;42748;50.016;19.890;2022-10-31T20:43:36;56.75;;;26.45;;
19691;SDS011;42748;50.016;19.890;2022-10-31T20:46:05;54.67;;;25.83;;
19691;SDS011;42748;50.016;19.890;2022-10-31T20:48:36;53.00;;;25.77;;
19691;SDS011;42748;50.016;19.890;2022-10-31T20:51:09;58.28;;;26.30;;
19691;SDS011;42748;50.016;19.890;2022-10-31T20:53:39;61.28;;;28.52;;
19691;SDS011;42748;50.016;19.890;2022-10-31T20:58:38;61.88;;;27.80;;
19691;SDS011;42748;50.016;19.890;2022-10-31T21:01:13;55.88;;;27.52;;
19691;SDS011;42748;50.016;19.890;2022-10-31T21:03:40;63.28;;;30.75;;
19691;SDS011;42748;50.016;19.890;2022-10-31T21:06:07;60.90;;;29.90;;
19691;SDS011;42748;50.016;19.890;2022-10-31T21:08:35;57.20;;;30.67;;
19691;SDS011;42748;50.016;19.890;2022-10-31T21:11:07;67.00;;;31.55;;
19691;SDS011;42748;50.016;19.890;2022-10-31T21:13:39;66.30;;;31.35;;
19691;SDS011;42748;50.016;19.890;2022-10-31T21:16:11;64.18;;;30.63;;
19691;SDS011;42748;50.016;19.890;2022-10-31T21:18:41;57.80;;;30.40;;
19691;SDS011;42748;50.016;19.890;2022-10-31T21:21:13;68.38;;;31.65;;
19691;SDS011;42748;50.016;19.890;2022-10-31T21:23:43;64.53;;;32.00;;
19691;SDS011;42748;50.016;19.890;2022-10-31T21:26:12;69.28;;;33.47;;
19691;SDS011;42748;50.016;19.890;2022-10-31T21:28:41;71.38;;;34.17;;
19691;SDS011;42748;50.016;19.890;2022-10-31T21:31:13;73.25;;;35.47;;
19691;SDS011;42748;50.016;19.890;2022-10-31T21:33:42;70.82;;;36.13;;
19691;SDS011;42748;50.016;19.890;2022-10-31T21:36:10;74.63;;;35.45;;
19691;SDS011;42748;50.016;19.890;2022-10-31T21:38:38;79.72;;;35.13;;
19691;SDS011;42748;50.016;19.890;2022-10-31T21:41:06;79.55;;;37.50;;
19691;SDS011;42748;50.016;19.890;2022-10-31T21:43:35;78.65;;;36.15;;
19691;SDS011;42748;50.016;19.890;2022-10-31T21:46:06;75.75;;;35.33;;
19691;SDS011;42748;50.016;19.890;2022-10-31T21:48:36;79.13;;;36.15;;
19691;SDS011;42748;50.016;19.890;2022-10-31T21:51:11;74.32;;;34.30;;
19691;SDS011;42748;50.016;19.890;2022-10-31T21:53:39;78.07;;;35.28;;
19691;SDS011;42748;50.016;19.890;2022-10-31T21:56:25;78.43;;;36.00;;
19691;SDS011;42748;50.016;19.890;2022-10-31T21:58:53;68.30;;;33.65;;
19691;SDS011;42748;50.016;19.890;2022-10-31T22:01:21;73.50;;;34.70;;
19691;SDS011;42748;50.016;19.890;2022-10-31T22:03:50;76.80;;;34.95;;
19691;SDS011;42748;50.016;19.890;2022-10-31T22:06:17;73.07;;;35.80;;
19691;SDS011;42748;50.016;19.890;2022-10-31T22:08:44;76.72;;;35.92;;
19691;SDS011;42748;50.016;19.890;2022-10-31T22:11:13;72.95;;;35.97;;
19691;SDS011;42748;50.016;19.890;2022-10-31T22:13:42;76.72;;;36.33;;
19691;SDS011;42748;50.016;19.890;2022-10-31T22:16:14;71.07;;;36.13;;
19691;SDS011;42748;50.016;19.890;2022-10-31T22:18:43;73.32;;;34.88;;
19691;SDS011;42748;50.016;19.890;2022-10-31T22:21:12;75.72;;;36.38;;
19691;SDS011;42748;50.016;19.890;2022-10-31T22:23:41;75.50;;;36.22;;
19691;SDS011;42748;50.016;19.890;2022-10-31T22:26:11;69.85;;;35.65;;
19691;SDS011;42748;50.016;19.890;2022-10-31T22:28:43;76.38;;;35.92;;
19691;SDS011;42748;50.016;19.890;2022-10-31T22:31:16;72.85;;;34.88;;
19691;SDS011;42748;50.016;19.890;2022-10-31T22:33:44;80.93;;;36.42;;
19691;SDS011;42748;50.016;19.890;2022-10-31T22:36:12;72.18;;;35.95;;
19691;SDS011;42748;50.016;19.890;2022-10-31T22:38:42;73.72;;;37.88;;
19691;SDS011;42748;50.016;19.890;2022-10-31T22:41:10;78.93;;;36.00;;
19691;SDS011;42748;50.016;19.890;2022-10-31T22:43:39;79.50;;;37.30;;
19691;SDS011;42748;50.016;19.890;2022-10-31T22:46:08;76.97;;;36.97;;
19691;SDS011;42748;50.016;19.890;2022-10-31T22:48:41;91.40;;;42.08;;
19691;SDS011;42748;50.016;19.890;2022-10-31T22:53:39;94.25;;;46.53;;
19691;SDS011;42748;50.016;19.890;2022-10-31T22:56:07;97.78;;;46.65;;
19691;SDS011;42748;50.016;19.890;2022-10-31T22:58:36;97.75;;;46.78;;
19691;SDS011;42748;50.016;19.890;2022-10-31T23:01:06;95.60;;;49.47;;
19691;SDS011;42748;50.016;19.890;2022-10-31T23:03:35;99.88;;;49.03;;
19691;SDS011;42748;50.016;19.890;2022-10-31T23:06:03;113.13;;;52.03;;
19691;SDS011;42748;50.016;19.890;2022-10-31T23:08:33;115.10;;;51.97;;
19691;SDS011;42748;50.016;19.890;2022-10-31T23:11:01;106.75;;;54.80;;
19691;SDS011;42748;50.016;19.890;2022-10-31T23:13:37;128.95;;;56.25;;
19691;SDS011;42748;50.016;19.890;2022-10-31T23:16:23;126.95;;;56.72;;
19691;SDS011;42748;50.016;19.890;2022-10-31T23:18:50;131.82;;;60.03;;
19691;SDS011;42748;50.016;19.890;2022-10-31T23:21:17;123.97;;;58.38;;
19691;SDS011;42748;50.016;19.890;2022-10-31T23:24:03;129.02;;;59.63;;
19691;SDS011;42748;50.016;19.890;2022-10-31T23:26:30;142.07;;;62.05;;
19691;SDS011;42748;50.016;19.890;2022-10-31T23:29:15;132.60;;;63.38;;
19691;SDS011;42748;50.016;19.890;2022-10-31T23:31:43;138.18;;;66.03;;
19691;SDS011;42748;50.016;19.890;2022-10-31T23:34:09;136.73;;;67.72;;
19691;SDS011;42748;50.016;19.890;2022-10-31T23:36:36;162.50;;;74.53;;
19691;SDS011;42748;50.016;19.890;2022-10-31T23:39:03;150.35;;;72.10;;
19691;SDS011;42748;50.016;19.890;2022-10-31T23:41:30;147.02;;;66.93;;
19691;SDS011;42748;50.016;19.890;2022-10-31T23:43:57;159.70;;;70.82;;
19691;SDS011;42748;50.016;19.890;2022-10-31T23:46:24;163.80;;;76.25;;
19691;SDS011;42748;50.016;19.890;2022-10-31T23:48:51;195.32;;;79.75;;
19691;SDS011;42748;50.016;19.890;2022-10-31T23:51:18;192.15;;;81.00;;
19691;SDS011;42748;50.016;19.890;2022-10-31T23:53:46;185.63;;;77.15;;
19691;SDS011;42748;50.016;19.890;2022-10-31T23:56:13;184.73;;;79.10;;
19691;SDS011;42748;50.016;19.890;2022-10-31T23:58:40;200.07;;;83.10;;
